ADDS METAR Data INFO
IDs: Format: Raw Decoded Include TAF

Data at: 0847 UTC 22 Feb 2018

KHUF 220842Z 07008KT 10SM -RA OVC010 04/04 A3035 RMK AO2 P0001 T00440039
KHUF 220753Z 08009KT 9SM -RA OVC009 04/03 A3038 RMK AO2 CIG 007V011 SLP291 P0003 T00390033
KHUF 220653Z 07010KT 6SM -RA BR OVC008 03/03 A3041 RMK AO2 SLP303 P0006 T00330028
KHUF 220553Z 05010KT 5SM -RA BR OVC007 03/02 A3045 RMK AO2 SLP316 P0003 60008 T00330022 10033 20022 58023
KHUF 220453Z 02008KT 4SM -RA BR OVC008 03/02 A3048 RMK AO2 SLP325 P0003 T00280022 401220017
KHUF 220353Z 05012KT 5SM -RA BR OVC008 02/02 A3049 RMK AO2 RAE01B24UPB0255E00 SLP331 P0001 T00220017
KHUF 212353Z 04009KT 10SM OVC023 03/01 A3049 RMK AO2 SLP329 T00280006 10033 20028 50003
KHUF 212253Z 04009KT 10SM BKN018 OVC025 03/01 A3049 RMK AO2 SLP332 T00280006
KHUF 212153Z 01008KT 10SM BKN016 OVC047 03/01 A3049 RMK AO2 SLP328 T00280006
KHUF 212129Z 03009KT 10SM BKN015 BKN024 OVC031 03/01 A3049 RMK AO2 T00280006
KHUF 212109Z 03009KT 4SM BR BKN013 BKN023 OVC029 03/01 A3048 RMK AO2 T00280006
KHUF 212101Z 02010KT 2 1/2SM BR BKN013 BKN025 OVC029 03/01 A3048 RMK AO2 T00280011
KHUF 212053Z 02010KT 3SM BR BKN015 BKN025 OVC032 03/01 A3048 RMK AO2 SLP324 T00280011 53002
KHUF 211953Z 36013KT 10SM OVC015 03/01 A3047 RMK AO2 SLP322 T00280006
KHUF 211933Z 01010KT 10SM OVC015 03/01 A3047 RMK AO2 T00330011
KHUF 211853Z 01008KT 10SM OVC013 03/01 A3047 RMK AO2 SLP320 T00330011
KHUF 211800Z 02013KT 10SM BKN014 OVC026 03/01 A3048 RMK AO2 T00330011
KHUF 211753Z 36009KT 10SM BKN009 BKN014 OVC026 03/01 A3047 RMK AO2 RAE23 SLP321 P0001 60024 T00330011 10033 20017 50010
KHUF 211653Z 01008KT 8SM -RA OVC008 03/02 A3048 RMK AO2 SLP323 P0002 T00330022
KHUF 211613Z 35006KT 8SM -RA OVC009 03/02 A3047 RMK AO2 CIG 007V012 P0001 T00280022
KHUF 211553Z 36007KT 7SM -RA OVC010 03/02 A3046 RMK AO2 CIG 007V013 SLP317 P0002 T00280017
KHUF 211528Z 36007KT 10SM -RA BKN010 OVC045 03/02 A3045 RMK AO2 P0001 T00280017
KHUF 211515Z 36007KT 10SM -RA BKN009 BKN022 OVC045 02/02 A3044 RMK AO2 P0001 T00220017
KHUF 211507Z 02006KT 10SM -RA SCT009 SCT016 OVC045 02/02 A3043 RMK AO2 P0001 T00220017
KHUF 211453Z 01009KT 8SM -RA BKN009 BKN013 OVC045 02/01 A3044 RMK AO2 SLP309 P0005 60019 T00220011 51035
KHUF 211353Z 36007KT 8SM -RA BKN009 OVC039 02/01 A3041 RMK AO2 SLP297 P0006 T00170011
KHUF 211253Z 33013KT 8SM -RA BKN008 OVC030 02/01 A3037 RMK AO2 SLP285 P0008 T00220011
KHUF 210753Z 31013G21KT 9SM -RA OVC009 04/04 A3021 RMK AO2 SLP228 P0012 T00440039
KHUF 210653Z 33011KT 4SM RA BR BKN005 OVC010 07/07 A3013 RMK AO2 SLP200 P0029 T00720067
KHUF 210648Z 33008KT 3SM +RA BR BKN005 BKN010 OVC035 07/07 A3012 RMK AO2 P0027
KHUF 210644Z 34009KT 2 1/2SM +RA BR SCT005 BKN012 OVC035 07/07 A3010 RMK AO2 P0026 T00720067
KHUF 210633Z 34011KT 3SM RA BR SCT005 BKN015 OVC046 07/07 A3010 RMK AO2 P0017 T00720067
KHUF 210628Z 33009KT 2 1/2SM +RA BR SCT005 BKN012 OVC034 07/07 A3010 RMK AO2 P0016 T00720067
KHUF 210553Z 34008G17KT 10SM -RA FEW007 OVC024 08/08 A3006 RMK AO2 PK WND 32027/0514 RAB07 SLP179 P0016 60016 T00830078 10217 20083 53017